メインページ
METAR-TAF:

METAR-TAF

空港 :

エルモシージョ, メキシコ

緯度: 29-04N, 経度: 110-57W, 海抜: 211m

現時点の気象観測

当レポートは54分前の04:40(UTC)に作成
無風
気温 13°C
湿度 38%
気圧 1017 hPa
視程: 16.1km
高度20000ftの雲は散在している

METAR: MMHO 160440Z 00000KT 10SM SCT200 13/M01 A3004 RMK 8/008 HZY

時間: 22:34 (05:34 UTC)

予報

当レポートは12時間30分前の17:04(UTC)に作成
予報は15日の 18時(UTC)から 16日の 18時(UTC)まで有効
北東の風 5kt
視程: 10km
晴天
16日の 0200時(UTC)から
の風 kt
視程: 10km
高度28000ftの千切れ雲あり

TAF: MMHO 151704Z 1518/1618 04005KT P6SM SKC FM160200 00000KT P6SM BKN280

4,000以上の空港の気象観測と天気予報(METAR報とTAF報)

利用可能な観測所は地図上に黄色い丸と赤い丸で示す。

丸の上にカーソルを重ねると観測所名を参照できる。

次にクリックすると気象観測と天気予報を参照できる。

マップの切り替え:黒色「×」印の緑ボタンをクリックして拡大、「-」印の緑ボタンをクリックして縮小、緑色の三角印をクリックして隣りの地図に切り替え


METAR-TAF: